Time;durP1;ratioP1;P1;durP2;ratioP2;P2;SDS_P1;SDS_P2;PMS_P1;PMS_P2;Temp;Humidity;BMP_temperature;BMP_pressure;BME280_temperature;BME280_humidity;BME280_pressure;Samples;Min_cycle;Max_cycle;Signal;HPM_P1;HPM_P2
2023/06/21 00:01:01;;;;;;;6.90;3.72;;;16.10;99.90;;;;;;5040871;28;20048;-51
2023/06/21 00:03:27;;;;;;;7.25;3.88;;;16.10;99.90;;;;;;5037017;28;20018;-49
2023/06/21 00:05:53;;;;;;;8.27;4.30;;;16.10;99.90;;;;;;5041375;28;20059;-47
2023/06/21 00:08:18;;;;;;;9.15;3.60;;;16.10;99.90;;;;;;5036816;28;20017;-53
2023/06/21 00:10:44;;;;;;;7.63;3.95;;;16.20;99.90;;;;;;5038592;28;20026;-54
2023/06/21 00:13:10;;;;;;;10.98;3.70;;;16.20;99.90;;;;;;5047820;28;20102;-44
2023/06/21 00:15:36;;;;;;;8.38;3.58;;;16.30;99.90;;;;;;5051316;28;20665;-50
2023/06/21 00:18:02;;;;;;;10.27;3.95;;;16.30;99.90;;;;;;5051863;28;20094;-47
2023/06/21 00:20:28;;;;;;;7.35;3.45;;;16.40;99.90;;;;;;5051584;28;20540;-54
2023/06/21 00:22:55;;;;;;;5.70;3.05;;;16.40;99.90;;;;;;5050997;28;20025;-51
2023/06/21 00:25:22;;;;;;;6.40;3.42;;;16.40;99.90;;;;;;5051994;28;20470;-51
2023/06/21 00:27:47;;;;;;;6.60;3.30;;;16.50;99.90;;;;;;5051906;28;20104;-52
2023/06/21 00:30:13;;;;;;;5.82;2.72;;;16.40;99.90;;;;;;5051884;28;20032;-44
2023/06/21 00:32:39;;;;;;;4.93;2.85;;;16.40;99.90;;;;;;5051962;28;20032;-50
2023/06/21 00:35:05;;;;;;;6.30;3.60;;;16.40;99.90;;;;;;5051580;28;20025;-47
2023/06/21 00:37:31;;;;;;;8.05;3.42;;;16.30;99.90;;;;;;5051323;28;20507;-46
2023/06/21 00:39:57;;;;;;;7.97;3.55;;;16.30;99.90;;;;;;5051911;28;20017;-52
2023/06/21 00:42:23;;;;;;;7.15;3.28;;;16.30;99.90;;;;;;5051766;28;20033;-50
2023/06/21 00:44:49;;;;;;;6.00;3.35;;;16.20;99.90;;;;;;5051686;28;20076;-51
2023/06/21 00:47:14;;;;;;;6.00;3.75;;;16.20;99.90;;;;;;5051645;28;20080;-48
2023/06/21 00:49:40;;;;;;;7.90;3.25;;;16.20;99.90;;;;;;5051796;28;20532;-44
2023/06/21 00:52:06;;;;;;;5.47;3.20;;;16.20;99.90;;;;;;5051390;28;20766;-51
2023/06/21 00:54:34;;;;;;;8.05;3.30;;;16.20;99.90;;;;;;5051742;28;20493;-45
2023/06/21 00:57:04;;;;;;;7.07;3.45;;;16.20;99.90;;;;;;5051647;28;20028;-55
2023/06/21 00:59:30;;;;;;;5.18;3.03;;;16.20;99.90;;;;;;5051535;28;20033;-50
2023/06/21 01:01:56;;;;;;;6.43;2.83;;;16.30;99.90;;;;;;5051551;28;20028;-48
2023/06/21 01:04:27;;;;;;;4.40;2.92;;;16.30;99.90;;;;;;5051225;28;20500;-53
2023/06/21 01:07:13;;;;;;;4.40;2.38;;;16.30;99.90;;;;;;5051014;28;20395;-45
2023/06/21 01:10:05;;;;;;;5.35;2.47;;;16.40;99.90;;;;;;5051270;28;20074;-45
2023/06/21 01:12:31;;;;;;;4.28;2.22;;;16.40;99.90;;;;;;5049789;28;20048;-51
2023/06/21 01:15:08;;;;;;;5.32;2.28;;;16.50;99.90;;;;;;5051092;28;20017;-53
2023/06/21 01:17:39;;;;;;;4.60;2.53;;;16.50;99.90;;;;;;5051443;28;20033;-46
2023/06/21 01:20:13;;;;;;;6.63;2.83;;;16.50;99.90;;;;;;5051208;28;20814;-48
2023/06/21 01:22:59;;;;;;;5.28;2.30;;;16.60;99.90;;;;;;5051155;28;20035;-43
2023/06/21 01:25:50;;;;;;;4.50;2.63;;;16.60;99.90;;;;;;5050723;28;20044;-46
2023/06/21 01:28:52;;;;;;;4.32;2.40;;;16.60;99.90;;;;;;5050721;28;20027;-44
2023/06/21 01:31:18;;;;;;;4.60;2.90;;;16.60;99.90;;;;;;5049670;28;20429;-47
2023/06/21 01:33:44;;;;;;;6.30;2.50;;;16.70;99.90;;;;;;5050225;28;20080;-51
2023/06/21 01:36:10;;;;;;;4.35;2.60;;;16.70;99.90;;;;;;5050458;28;20443;-57
2023/06/21 01:38:37;;;;;;;4.40;2.58;;;16.70;99.90;;;;;;5050418;28;20021;-49
2023/06/21 01:41:03;;;;;;;4.93;2.50;;;16.70;99.90;;;;;;5050467;28;20020;-55
2023/06/21 01:43:30;;;;;;;3.58;2.38;;;16.70;99.90;;;;;;5050435;28;20107;-51
2023/06/21 01:45:58;;;;;;;5.22;2.50;;;16.80;99.90;;;;;;5050228;28;20114;-50
2023/06/21 01:48:24;;;;;;;4.57;2.33;;;16.70;99.90;;;;;;5050074;28;20028;-52
2023/06/21 01:50:51;;;;;;;3.83;2.05;;;16.70;99.90;;;;;;5050295;28;20021;-49
2023/06/21 01:53:18;;;;;;;4.40;2.40;;;16.60;99.90;;;;;;5050563;28;20029;-46
2023/06/21 01:55:48;;;;;;;2.75;1.70;;;16.50;99.90;;;;;;5050416;28;20432;-44
2023/06/21 01:58:15;;;;;;;5.22;2.47;;;16.50;99.90;;;;;;5050552;28;20021;-54
2023/06/21 02:00:41;;;;;;;4.20;2.53;;;16.40;99.90;;;;;;5050492;28;20074;-49
2023/06/21 02:03:09;;;;;;;3.97;2.42;;;16.30;99.90;;;;;;5050430;28;20028;-44
2023/06/21 02:05:35;;;;;;;4.20;2.15;;;16.20;99.90;;;;;;5050770;28;20162;-59
2023/06/21 02:08:04;;;;;;;4.10;2.38;;;16.10;99.90;;;;;;5050531;28;20100;-52
2023/06/21 02:10:30;;;;;;;4.75;2.35;;;16.10;99.90;;;;;;5050570;28;20037;-53
2023/06/21 02:12:56;;;;;;;4.05;2.22;;;16.00;99.90;;;;;;5050041;28;20059;-46
2023/06/21 02:15:23;;;;;;;3.72;1.92;;;16.00;99.90;;;;;;5049952;28;20049;-49
2023/06/21 02:17:51;;;;;;;3.50;2.05;;;15.90;99.90;;;;;;5050516;28;20036;-51
2023/06/21 02:20:19;;;;;;;5.85;2.72;;;15.90;99.90;;;;;;5053999;28;20031;-54
2023/06/21 02:22:45;;;;;;;3.13;2.00;;;15.90;99.90;;;;;;5054517;28;20040;-53
2023/06/21 02:25:12;;;;;;;6.63;2.80;;;15.80;99.90;;;;;;5054023;28;20127;-48
2023/06/21 02:27:38;;;;;;;4.38;2.42;;;15.90;99.90;;;;;;5054071;28;20036;-53
2023/06/21 02:30:06;;;;;;;4.68;2.53;;;16.00;99.90;;;;;;5053556;28;20025;-48
2023/06/21 02:32:31;;;;;;;4.93;2.38;;;16.00;99.90;;;;;;5053347;28;20037;-44
2023/06/21 02:34:57;;;;;;;5.60;2.65;;;16.10;99.90;;;;;;5054421;28;20421;-45
2023/06/21 02:37:22;;;;;;;5.30;2.63;;;16.10;99.90;;;;;;5054199;28;20032;-48
2023/06/21 02:39:48;;;;;;;9.93;3.63;;;16.20;99.90;;;;;;5053412;28;20017;-49
2023/06/21 02:42:14;;;;;;;6.35;3.55;;;16.20;99.90;;;;;;5053964;28;20040;-49
2023/06/21 02:44:41;;;;;;;7.30;4.03;;;16.20;99.90;;;;;;5053797;28;20104;-49
2023/06/21 02:47:07;;;;;;;6.60;3.70;;;16.30;99.90;;;;;;5053838;28;20102;-50
2023/06/21 02:49:36;;;;;;;8.90;3.20;;;16.40;99.90;;;;;;5053684;28;20037;-43
2023/06/21 02:52:03;;;;;;;6.38;3.67;;;16.40;99.90;;;;;;5053952;28;20076;-45
2023/06/21 02:54:29;;;;;;;6.47;3.15;;;16.40;99.90;;;;;;5053451;28;20044;-46
2023/06/21 02:56:55;;;;;;;5.07;2.90;;;16.40;99.90;;;;;;5052884;28;20021;-48
2023/06/21 02:59:20;;;;;;;5.05;3.35;;;16.40;99.90;;;;;;5053480;28;20652;-52
2023/06/21 03:01:46;;;;;;;5.13;3.17;;;16.40;99.90;;;;;;5052952;28;20028;-44
2023/06/21 03:04:12;;;;;;;4.93;2.70;;;16.40;99.90;;;;;;5053542;28;20489;-44
2023/06/21 03:06:38;;;;;;;6.43;3.10;;;16.40;99.90;;;;;;5053610;28;20032;-45
2023/06/21 03:09:05;;;;;;;4.13;2.63;;;16.50;99.90;;;;;;5053725;28;20037;-49
2023/06/21 03:11:30;;;;;;;5.35;3.13;;;16.50;99.90;;;;;;5053236;28;20484;-44
2023/06/21 03:13:56;;;;;;;4.60;3.10;;;16.50;99.90;;;;;;5051505;28;20098;-55
2023/06/21 03:16:22;;;;;;;5.70;3.22;;;16.50;99.90;;;;;;5053541;28;20051;-50
2023/06/21 03:18:47;;;;;;;5.10;2.72;;;16.50;99.90;;;;;;5053272;28;20033;-44
2023/06/21 03:21:13;;;;;;;6.53;3.03;;;16.50;99.90;;;;;;5052729;28;20013;-49
2023/06/21 03:23:38;;;;;;;5.05;2.80;;;16.60;99.90;;;;;;5053515;28;20381;-46
2023/06/21 03:26:04;;;;;;;5.47;2.60;;;16.50;99.90;;;;;;5053166;28;20092;-47
2023/06/21 03:28:30;;;;;;;5.03;3.00;;;16.60;99.90;;;;;;5053144;28;20029;-46
2023/06/21 03:30:57;;;;;;;5.13;3.13;;;16.60;99.90;;;;;;5052469;28;20455;-47
2023/06/21 03:33:23;;;;;;;7.28;3.00;;;16.60;99.90;;;;;;5053000;28;20049;-49
2023/06/21 03:35:49;;;;;;;5.00;2.88;;;16.60;99.90;;;;;;5053004;28;20060;-46
2023/06/21 03:38:17;;;;;;;6.07;2.75;;;16.60;99.90;;;;;;5053372;28;20423;-54
2023/06/21 03:40:43;;;;;;;4.90;3.00;;;16.60;99.90;;;;;;5053011;28;20044;-50
2023/06/21 03:43:09;;;;;;;4.63;2.63;;;16.60;99.90;;;;;;5053017;28;20385;-46
2023/06/21 03:45:34;;;;;;;5.40;2.83;;;16.50;99.90;;;;;;5052816;28;20018;-46
2023/06/21 03:48:05;;;;;;;4.57;2.78;;;16.50;99.90;;;;;;5052948;28;20102;-43
2023/06/21 03:50:31;;;;;;;5.13;2.60;;;16.50;99.90;;;;;;5052743;28;20544;-47
2023/06/21 03:52:57;;;;;;;5.90;2.53;;;16.40;99.90;;;;;;5044829;28;20034;-55
2023/06/21 03:55:23;;;;;;;4.25;2.42;;;16.40;99.90;;;;;;5043542;28;20470;-54
2023/06/21 03:57:48;;;;;;;3.88;2.80;;;16.40;99.90;;;;;;5039196;28;20033;-46
2023/06/21 04:00:14;;;;;;;4.85;2.58;;;16.40;99.90;;;;;;5045287;28;20071;-49
2023/06/21 04:02:40;;;;;;;4.97;2.78;;;16.40;99.90;;;;;;5039548;28;20504;-44
2023/06/21 04:05:06;;;;;;;5.30;2.60;;;16.40;99.90;;;;;;5043244;28;20033;-51
2023/06/21 04:07:32;;;;;;;5.53;2.75;;;16.30;99.90;;;;;;5041462;28;20033;-56
2023/06/21 04:09:58;;;;;;;3.72;2.60;;;16.30;99.90;;;;;;5041143;28;20328;-58
2023/06/21 04:12:24;;;;;;;3.83;2.40;;;16.30;99.90;;;;;;5043000;28;20056;-49
2023/06/21 04:14:50;;;;;;;5.63;2.70;;;16.10;99.90;;;;;;5039342;28;20025;-45
2023/06/21 04:17:16;;;;;;;4.35;2.17;;;16.10;99.90;;;;;;5044901;28;20021;-47
2023/06/21 04:19:41;;;;;;;3.60;2.10;;;16.00;99.90;;;;;;5038993;28;20065;-46
2023/06/21 04:22:07;;;;;;;5.88;2.58;;;16.00;99.90;;;;;;5049458;28;20057;-53
2023/06/21 04:24:33;;;;;;;5.85;2.88;;;16.00;99.90;;;;;;5051848;28;20108;-53
2023/06/21 04:26:59;;;;;;;5.00;2.75;;;16.00;99.90;;;;;;5052191;28;20060;-45
2023/06/21 04:29:26;;;;;;;4.60;2.80;;;15.90;99.90;;;;;;5052175;28;20043;-44
2023/06/21 04:31:55;;;;;;;4.05;2.78;;;16.00;99.90;;;;;;5052048;28;20057;-48
2023/06/21 04:34:20;;;;;;;5.20;2.85;;;16.00;99.90;;;;;;5051987;28;20405;-50
2023/06/21 04:36:47;;;;;;;5.00;2.60;;;16.00;99.90;;;;;;5051641;28;20028;-49
2023/06/21 04:39:15;;;;;;;4.35;2.75;;;16.00;99.90;;;;;;5051900;28;20051;-47
2023/06/21 04:41:40;;;;;;;7.18;3.17;;;15.90;99.90;;;;;;5051383;28;20025;-57
2023/06/21 04:44:06;;;;;;;4.85;2.58;;;15.90;99.90;;;;;;5051019;28;20090;-44
2023/06/21 04:46:36;;;;;;;4.10;2.22;;;15.90;99.90;;;;;;5051066;28;20045;-43
2023/06/21 04:49:04;;;;;;;5.03;2.45;;;15.90;99.90;;;;;;5051325;28;20029;-52
2023/06/21 04:51:30;;;;;;;4.82;2.53;;;16.00;99.90;;;;;;5050641;28;20111;-47
2023/06/21 04:53:58;;;;;;;5.40;3.00;;;16.10;99.90;;;;;;5051090;28;20037;-44
2023/06/21 04:56:25;;;;;;;5.35;2.70;;;16.20;99.90;;;;;;5051485;28;20052;-45
2023/06/21 04:58:51;;;;;;;7.40;2.50;;;16.40;99.90;;;;;;5051177;28;20024;-56
2023/06/21 05:01:17;;;;;;;6.95;2.92;;;16.60;99.90;;;;;;5050912;28;20017;-50
2023/06/21 05:03:48;;;;;;;6.47;3.13;;;16.90;99.90;;;;;;5050798;28;20516;-46
2023/06/21 05:06:17;;;;;;;5.55;2.85;;;17.00;99.90;;;;;;5051493;28;20071;-43
2023/06/21 05:08:43;;;;;;;4.00;2.63;;;17.20;99.90;;;;;;5051104;28;20025;-47
2023/06/21 05:11:08;;;;;;;6.53;2.50;;;17.50;99.90;;;;;;5051481;28;20132;-48
2023/06/21 05:13:34;;;;;;;4.25;2.80;;;17.60;99.90;;;;;;5050483;28;20048;-45
2023/06/21 05:16:00;;;;;;;5.43;2.60;;;17.70;99.90;;;;;;5050721;28;20025;-52
2023/06/21 05:18:25;;;;;;;5.28;2.78;;;17.80;99.90;;;;;;5051108;28;20032;-52
2023/06/21 05:20:51;;;;;;;4.88;2.20;;;17.90;99.90;;;;;;5050791;28;20056;-48
2023/06/21 05:23:17;;;;;;;4.75;2.15;;;17.90;99.90;;;;;;5051219;28;20044;-49
2023/06/21 05:25:42;;;;;;;4.50;2.40;;;18.00;99.90;;;;;;5049369;28;20477;-43
2023/06/21 05:28:08;;;;;;;4.68;2.05;;;17.90;99.90;;;;;;5050888;28;20025;-46
2023/06/21 05:30:34;;;;;;;3.47;2.28;;;17.90;99.90;;;;;;5050890;28;20412;-49
2023/06/21 05:32:59;;;;;;;4.60;2.47;;;18.00;99.90;;;;;;5050742;28;20045;-52
2023/06/21 05:35:25;;;;;;;5.65;2.80;;;18.10;99.90;;;;;;5050708;28;20025;-54
2023/06/21 05:37:53;;;;;;;3.55;2.15;;;18.10;99.90;;;;;;5050507;28;20036;-49
2023/06/21 05:40:19;;;;;;;2.72;1.73;;;18.20;99.90;;;;;;5050744;28;20048;-53
2023/06/21 05:42:45;;;;;;;3.00;1.60;;;18.30;99.90;;;;;;5050226;28;20090;-49
2023/06/21 05:45:11;;;;;;;3.08;1.75;;;18.40;99.90;;;;;;5050499;28;20120;-45
2023/06/21 05:47:37;;;;;;;5.45;2.17;;;18.60;99.90;;;;;;5050681;28;20080;-49
2023/06/21 05:50:03;;;;;;;2.70;1.70;;;18.80;99.90;;;;;;5050411;28;20025;-54
2023/06/21 05:52:29;;;;;;;2.55;1.50;;;19.10;99.90;;;;;;5050564;28;20040;-57
2023/06/21 05:54:55;;;;;;;3.28;1.77;;;19.50;99.90;;;;;;5049741;28;20055;-57
2023/06/21 05:57:21;;;;;;;4.05;1.60;;;19.90;99.90;;;;;;5050040;28;20043;-46
2023/06/21 05:59:47;;;;;;;2.47;1.42;;;20.30;99.90;;;;;;5050270;28;20044;-53
2023/06/21 06:02:12;;;;;;;3.40;1.48;;;20.80;99.90;;;;;;5050186;28;20021;-43
2023/06/21 06:04:39;;;;;;;4.28;1.65;;;21.00;99.90;;;;;;5050316;28;20025;-55
2023/06/21 06:07:05;;;;;;;2.83;1.60;;;21.00;99.90;;;;;;5050421;28;20104;-49
2023/06/21 06:09:30;;;;;;;5.20;1.48;;;20.80;99.90;;;;;;5050068;28;20037;-58
2023/06/21 06:11:56;;;;;;;4.05;1.80;;;20.60;99.90;;;;;;5049483;28;20052;-54
2023/06/21 06:14:24;;;;;;;2.70;1.42;;;20.30;99.90;;;;;;5050068;28;20081;-44
2023/06/21 06:16:49;;;;;;;2.70;1.58;;;20.00;99.90;;;;;;5050286;28;20017;-48
2023/06/21 06:19:15;;;;;;;2.03;1.30;;;19.90;99.90;;;;;;5049860;28;20033;-53
2023/06/21 06:21:41;;;;;;;4.05;1.70;;;19.70;99.90;;;;;;5049673;28;20020;-55
2023/06/21 06:24:07;;;;;;;3.83;1.50;;;19.60;99.90;;;;;;5050466;28;20037;-45
2023/06/21 06:26:32;;;;;;;4.75;2.03;;;19.50;99.90;;;;;;5050437;28;20460;-56
2023/06/21 06:28:58;;;;;;;2.92;1.58;;;19.60;99.90;;;;;;5050374;28;20520;-54
2023/06/21 06:31:29;;;;;;;2.65;1.45;;;20.00;99.90;;;;;;5050105;28;20384;-55
2023/06/21 06:33:55;;;;;;;2.05;1.38;;;20.30;99.90;;;;;;5050256;28;20106;-51
2023/06/21 06:36:21;;;;;;;1.45;1.10;;;20.40;99.90;;;;;;5049845;28;20028;-46
2023/06/21 06:38:51;;;;;;;2.92;1.35;;;20.50;99.90;;;;;;5050295;28;20534;-50
2023/06/21 06:41:17;;;;;;;3.50;1.60;;;20.50;99.90;;;;;;5049988;28;20032;-52
2023/06/21 06:43:44;;;;;;;2.75;1.40;;;20.50;99.90;;;;;;5050038;28;20029;-45
2023/06/21 06:46:10;;;;;;;5.13;2.20;;;20.50;99.90;;;;;;5049335;28;20013;-49
2023/06/21 06:48:35;;;;;;;4.22;1.77;;;20.80;99.90;;;;;;5042886;28;20040;-50
2023/06/21 06:51:01;;;;;;;1.58;1.13;;;21.40;99.90;;;;;;5046853;28;20021;-48
2023/06/21 06:53:27;;;;;;;4.05;1.70;;;21.80;99.90;;;;;;5043680;28;20432;-52
2023/06/21 06:55:53;;;;;;;2.90;1.48;;;21.90;99.90;;;;;;5044246;28;20017;-55
2023/06/21 06:58:19;;;;;;;4.75;1.73;;;21.90;99.90;;;;;;5045732;28;20032;-45
2023/06/21 07:00:45;;;;;;;3.53;1.40;;;21.90;99.90;;;;;;5043704;28;20032;-46
2023/06/21 07:03:11;;;;;;;2.42;1.40;;;21.60;99.90;;;;;;5046567;28;20022;-53
2023/06/21 07:05:45;;;;;;;2.20;1.27;;;21.30;99.90;;;;;;5043365;28;20064;-47
2023/06/21 07:08:11;;;;;;;2.63;1.20;;;21.10;99.90;;;;;;5050163;28;20028;-47
2023/06/21 07:10:37;;;;;;;3.25;1.40;;;21.00;99.90;;;;;;5045904;28;20021;-55
2023/06/21 07:13:03;;;;;;;2.10;1.25;;;21.50;99.90;;;;;;5049589;28;20098;-50
2023/06/21 07:15:29;;;;;;;2.20;1.55;;;21.90;99.90;;;;;;5047585;28;20029;-51
2023/06/21 07:17:55;;;;;;;5.93;1.52;;;22.80;99.90;;;;;;5051909;28;20033;-48
2023/06/21 07:20:21;;;;;;;3.92;1.67;;;23.20;99.90;;;;;;5053345;28;20108;-44
2023/06/21 07:22:47;;;;;;;3.38;1.60;;;23.20;99.90;;;;;;5051266;28;20140;-46
2023/06/21 07:25:14;;;;;;;2.63;1.60;;;23.00;99.90;;;;;;5046406;28;20031;-50
2023/06/21 07:27:40;;;;;;;4.05;1.80;;;22.60;99.90;;;;;;5033131;28;20383;-48
2023/06/21 07:30:06;;;;;;;4.93;1.58;;;22.10;99.90;;;;;;5048823;28;20061;-43
2023/06/21 07:32:33;;;;;;;2.22;1.30;;;21.80;99.90;;;;;;5040183;28;20045;-54
2023/06/21 07:34:59;;;;;;;4.20;1.50;;;21.90;99.90;;;;;;5047507;28;20161;-46
2023/06/21 07:37:26;;;;;;;3.65;1.60;;;22.30;99.90;;;;;;5038604;28;20496;-43
2023/06/21 07:39:52;;;;;;;1.95;1.20;;;23.00;99.90;;;;;;5031721;28;20500;-43
2023/06/21 07:42:17;;;;;;;2.60;1.20;;;23.60;99.90;;;;;;5050845;28;20052;-51
2023/06/21 07:44:44;;;;;;;4.45;1.30;;;23.70;99.90;;;;;;5052556;28;20481;-47
2023/06/21 07:47:09;;;;;;;3.60;1.50;;;24.00;99.90;;;;;;5051387;28;20028;-49
2023/06/21 07:49:35;;;;;;;3.70;1.60;;;23.70;99.90;;;;;;5051857;28;20025;-45
2023/06/21 07:52:02;;;;;;;2.08;1.15;;;23.30;99.90;;;;;;5045556;28;20037;-43
2023/06/21 07:54:27;;;;;;;2.60;1.48;;;23.30;99.90;;;;;;5049920;28;20578;-44
2023/06/21 07:56:53;;;;;;;4.63;1.52;;;23.00;99.90;;;;;;5049614;28;20025;-46
2023/06/21 07:59:19;;;;;;;5.95;1.45;;;22.90;99.90;;;;;;5046996;28;20494;-49
2023/06/21 08:01:44;;;;;;;2.53;1.15;;;23.20;99.90;;;;;;5047658;28;20063;-43
2023/06/21 08:04:10;;;;;;;2.10;1.15;;;23.50;99.90;;;;;;5037605;28;20079;-44
2023/06/21 08:06:35;;;;;;;1.88;1.25;;;23.60;99.90;;;;;;5045788;28;20025;-48
2023/06/21 08:09:01;;;;;;;2.38;1.20;;;23.50;99.90;;;;;;5046898;28;20025;-48
2023/06/21 08:11:26;;;;;;;3.17;1.30;;;23.90;99.90;;;;;;5041727;28;20117;-45
2023/06/21 08:13:52;;;;;;;3.47;1.13;;;24.50;99.90;;;;;;5039737;28;20037;-45
2023/06/21 08:16:18;;;;;;;3.38;1.20;;;25.00;99.90;;;;;;5036114;28;20022;-47
2023/06/21 08:18:43;;;;;;;2.65;1.50;;;25.40;99.90;;;;;;5046450;28;20106;-43
2023/06/21 08:21:09;;;;;;;1.55;1.10;;;25.90;99.90;;;;;;5045020;28;20025;-49
2023/06/21 08:23:35;;;;;;;4.03;1.50;;;26.20;99.90;;;;;;5038858;28;20429;-52
2023/06/21 08:26:01;;;;;;;4.15;1.25;;;25.80;99.90;;;;;;5049870;28;20123;-43
2023/06/21 08:28:27;;;;;;;3.35;1.25;;;25.90;99.90;;;;;;5046389;28;20052;-49
2023/06/21 08:30:52;;;;;;;3.28;1.33;;;25.90;99.90;;;;;;5047198;28;20468;-51
2023/06/21 08:33:18;;;;;;;2.55;1.60;;;25.50;99.90;;;;;;5036476;28;20480;-52
2023/06/21 08:35:43;;;;;;;3.03;1.40;;;25.20;99.90;;;;;;5051416;28;20025;-48
2023/06/21 08:38:09;;;;;;;4.82;1.35;;;25.40;99.90;;;;;;5047661;28;20032;-48
2023/06/21 08:40:37;;;;;;;2.75;1.60;;;25.00;99.90;;;;;;5042997;28;20033;-42
2023/06/21 08:43:03;;;;;;;3.45;1.25;;;24.50;99.90;;;;;;5041233;28;20033;-49
2023/06/21 08:45:29;;;;;;;2.55;1.40;;;23.90;99.90;;;;;;5047760;28;20036;-53
2023/06/21 08:48:02;;;;;;;2.80;1.50;;;23.70;99.90;;;;;;5038400;28;20498;-52
2023/06/21 08:50:29;;;;;;;3.13;1.60;;;23.40;99.90;;;;;;5032677;28;20025;-44
2023/06/21 08:52:59;;;;;;;2.67;1.40;;;23.10;99.90;;;;;;5031920;28;20095;-46
2023/06/21 08:55:27;;;;;;;4.53;1.75;;;23.20;99.90;;;;;;5042006;28;20022;-50
2023/06/21 08:58:03;;;;;;;4.38;1.83;;;23.50;99.90;;;;;;5043921;28;20060;-46
2023/06/21 09:00:34;;;;;;;2.67;1.38;;;23.50;99.90;;;;;;5049714;28;20040;-44
2023/06/21 09:03:09;;;;;;;4.05;2.10;;;23.20;99.90;;;;;;5048971;28;20133;-55
2023/06/21 09:05:37;;;;;;;2.42;1.52;;;23.00;99.90;;;;;;5044334;28;20029;-49
2023/06/21 09:08:05;;;;;;;9.40;1.80;;;22.70;99.90;;;;;;5037293;28;20033;-49
2023/06/21 09:10:33;;;;;;;3.53;1.88;;;22.50;99.90;;;;;;5034221;28;20080;-48
2023/06/21 09:13:01;;;;;;;2.65;1.83;;;22.50;99.90;;;;;;5041070;28;20132;-51
2023/06/21 09:15:29;;;;;;;3.83;1.60;;;22.90;99.90;;;;;;5047843;28;20378;-45
2023/06/21 09:17:56;;;;;;;3.15;1.90;;;23.20;99.90;;;;;;5036799;28;20433;-43
2023/06/21 09:20:27;;;;;;;3.63;2.00;;;23.40;99.90;;;;;;5037190;28;20020;-52
2023/06/21 09:22:55;;;;;;;2.90;1.50;;;23.60;99.90;;;;;;5048390;28;20029;-49
2023/06/21 09:25:21;;;;;;;3.75;1.85;;;23.40;99.90;;;;;;5041657;28;20490;-47
2023/06/21 09:27:47;;;;;;;2.72;1.67;;;22.90;99.90;;;;;;5034862;28;20039;-55
2023/06/21 09:30:13;;;;;;;3.28;1.60;;;22.70;99.90;;;;;;5043463;28;20494;-46
2023/06/21 09:32:39;;;;;;;3.95;2.00;;;22.50;99.90;;;;;;5043679;28;20160;-49
2023/06/21 09:35:05;;;;;;;4.40;1.60;;;22.60;99.90;;;;;;5049396;28;20032;-49
2023/06/21 09:37:35;;;;;;;4.90;2.45;;;22.90;99.90;;;;;;5048709;28;20174;-49
2023/06/21 09:40:03;;;;;;;4.50;1.70;;;23.40;99.90;;;;;;5043241;28;20044;-51
2023/06/21 09:42:29;;;;;;;3.05;1.60;;;24.10;99.90;;;;;;5047359;28;20401;-53
2023/06/21 09:44:55;;;;;;;3.13;2.10;;;24.30;99.90;;;;;;5047017;28;20028;-44
2023/06/21 09:47:21;;;;;;;4.25;1.65;;;24.00;99.90;;;;;;5044961;28;20040;-43
2023/06/21 09:49:48;;;;;;;2.78;1.80;;;23.50;99.90;;;;;;5044040;28;20041;-46
2023/06/21 09:52:21;;;;;;;2.28;1.65;;;23.70;99.90;;;;;;5037550;28;20100;-46
2023/06/21 09:54:47;;;;;;;3.67;1.85;;;24.20;99.90;;;;;;5041462;28;20040;-45
2023/06/21 09:57:12;;;;;;;4.68;2.10;;;25.00;99.90;;;;;;5032515;28;20026;-47
2023/06/21 09:59:39;;;;;;;3.35;1.92;;;25.10;99.90;;;;;;5078257;28;20119;-53
2023/06/21 10:02:06;;;;;;;4.22;1.80;;;25.30;99.90;;;;;;5042271;28;20396;-46
2023/06/21 10:04:43;;;;;;;3.63;1.73;;;25.70;99.90;;;;;;5039775;28;20025;-51
2023/06/21 10:07:11;;;;;;;3.58;1.85;;;25.90;99.90;;;;;;5048982;28;20033;-48
2023/06/21 10:09:37;;;;;;;2.95;1.80;;;25.60;99.90;;;;;;5032378;28;20092;-54
2023/06/21 10:12:09;;;;;;;5.15;2.13;;;25.30;99.90;;;;;;5037073;28;20031;-46
2023/06/21 10:14:35;;;;;;;4.15;1.77;;;24.90;99.90;;;;;;5049270;28;20033;-43
2023/06/21 10:17:01;;;;;;;3.53;1.70;;;24.70;99.90;;;;;;5037772;28;20362;-44
2023/06/21 10:19:30;;;;;;;3.85;1.70;;;24.70;99.90;;;;;;5047912;28;20033;-44
2023/06/21 10:22:04;;;;;;;3.65;1.90;;;25.10;99.90;;;;;;5048833;28;20090;-50
2023/06/21 10:24:39;;;;;;;3.65;1.77;;;25.70;99.90;;;;;;5038519;28;20079;-51
2023/06/21 10:27:09;;;;;;;2.38;1.65;;;26.00;99.90;;;;;;5035516;28;20029;-44
2023/06/21 10:29:37;;;;;;;3.45;2.22;;;25.90;99.90;;;;;;5038240;28;20013;-46
2023/06/21 10:32:05;;;;;;;3.63;1.98;;;25.80;99.90;;;;;;5047742;28;20029;-44
2023/06/21 10:34:41;;;;;;;4.95;2.00;;;26.00;99.90;;;;;;5042542;28;20489;-45
2023/06/21 10:37:14;;;;;;;3.33;1.80;;;25.90;99.90;;;;;;5039510;28;20030;-47
2023/06/21 10:39:40;;;;;;;3.35;1.73;;;26.30;99.90;;;;;;5034241;28;20033;-42
2023/06/21 10:42:07;;;;;;;3.78;1.92;;;26.70;99.90;;;;;;5050835;28;20036;-46
2023/06/21 10:44:34;;;;;;;2.72;1.73;;;26.70;99.90;;;;;;5047959;28;20028;-47
2023/06/21 10:47:00;;;;;;;3.88;2.20;;;26.40;99.90;;;;;;5041502;28;20036;-42
2023/06/21 10:49:27;;;;;;;4.10;2.47;;;26.20;99.90;;;;;;5038738;28;20068;-43
2023/06/21 10:51:53;;;;;;;4.10;2.00;;;26.30;99.90;;;;;;5047881;28;20044;-50
2023/06/21 10:54:20;;;;;;;3.28;1.90;;;26.30;99.90;;;;;;5051995;28;20033;-45
2023/06/21 10:56:45;;;;;;;4.28;1.98;;;26.30;99.90;;;;;;5046588;28;20025;-43
2023/06/21 10:59:11;;;;;;;5.25;1.98;;;26.30;99.90;;;;;;5050693;28;20095;-49
2023/06/21 11:01:37;;;;;;;5.72;2.22;;;26.70;99.90;;;;;;5049048;28;20029;-45
2023/06/21 11:04:04;;;;;;;4.20;1.90;;;26.80;99.90;;;;;;5039186;28;20032;-43
2023/06/21 11:06:33;;;;;;;2.67;1.77;;;27.10;99.90;;;;;;5043889;28;20028;-43
2023/06/21 11:09:16;;;;;;;3.15;1.80;;;27.10;99.90;;;;;;5043262;28;20032;-42
2023/06/21 11:11:51;;;;;;;3.45;2.20;;;27.10;99.90;;;;;;5050474;28;20028;-42
2023/06/21 11:14:21;;;;;;;3.10;1.73;;;27.20;99.90;;;;;;5049092;28;20686;-45
2023/06/21 11:16:47;;;;;;;3.50;1.92;;;27.00;99.90;;;;;;5051408;28;20485;-42
2023/06/21 11:19:14;;;;;;;3.95;1.98;;;26.80;99.90;;;;;;5053166;28;20029;-49
2023/06/21 11:21:49;;;;;;;4.55;2.10;;;26.90;99.90;;;;;;5053059;28;20454;-38
2023/06/21 11:24:17;;;;;;;3.00;1.80;;;27.10;99.90;;;;;;5053572;28;20056;-47
2023/06/21 11:26:56;;;;;;;4.00;1.92;;;26.90;99.90;;;;;;5053031;28;20033;-45
2023/06/21 11:29:22;;;;;;;3.38;1.60;;;26.40;99.90;;;;;;5047689;28;20036;-49
2023/06/21 11:31:48;;;;;;;4.57;2.20;;;26.80;99.90;;;;;;5042941;28;20104;-45
2023/06/21 11:34:24;;;;;;;4.03;1.77;;;27.10;99.90;;;;;;5039065;28;20060;-48
2023/06/21 11:36:49;;;;;;;3.97;2.00;;;27.10;99.90;;;;;;5052358;28;20009;-49
2023/06/21 11:39:15;;;;;;;4.22;1.60;;;26.90;99.90;;;;;;5052783;28;20039;-45
2023/06/21 11:41:43;;;;;;;2.83;1.90;;;26.80;99.90;;;;;;5038059;28;20026;-43
2023/06/21 11:44:31;;;;;;;3.28;1.70;;;27.20;99.90;;;;;;5042439;28;20025;-50
2023/06/21 11:47:18;;;;;;;3.08;1.80;;;27.00;99.90;;;;;;5040874;28;20116;-45
2023/06/21 11:50:13;;;;;;;6.95;2.00;;;27.00;99.90;;;;;;5033811;28;20053;-48
2023/06/21 11:52:39;;;;;;;3.17;2.20;;;27.20;99.90;;;;;;5044375;28;20588;-50
2023/06/21 11:55:14;;;;;;;3.33;1.85;;;26.90;99.90;;;;;;5048550;28;20103;-44
2023/06/21 11:57:46;;;;;;;3.95;1.83;;;26.70;99.90;;;;;;5046554;28;20534;-49
2023/06/21 12:00:12;;;;;;;4.38;1.98;;;26.80;99.90;;;;;;5040955;28;20186;-47
2023/06/21 12:02:38;;;;;;;4.50;1.88;;;26.50;99.90;;;;;;5048003;28;20020;-49
2023/06/21 12:05:04;;;;;;;4.88;2.00;;;26.40;99.90;;;;;;5047137;28;20035;-40
2023/06/21 12:07:30;;;;;;;2.90;1.52;;;26.10;99.90;;;;;;5047554;28;20110;-43
2023/06/21 12:09:56;;;;;;;4.07;1.70;;;26.10;99.90;;;;;;5056498;28;20167;-52
2023/06/21 12:12:25;;;;;;;3.20;1.60;;;26.00;99.90;;;;;;5039894;28;20120;-48
2023/06/21 12:14:51;;;;;;;3.03;1.60;;;25.90;99.90;;;;;;5052821;28;20036;-55
2023/06/21 12:17:20;;;;;;;2.63;1.70;;;26.20;99.90;;;;;;5045952;28;20025;-48
2023/06/21 12:19:45;;;;;;;;;;;26.10;99.90;;;;;;5041581;28;20025;-50
2023/06/21 12:22:14;;;;;;;3.60;1.75;;;26.00;99.90;;;;;;5046975;28;20258;-42
2023/06/21 12:24:39;;;;;;;2.90;1.65;;;26.30;99.90;;;;;;5043111;28;20439;-56
2023/06/21 12:27:05;;;;;;;2.80;2.03;;;26.00;99.90;;;;;;5042620;28;20044;-49
2023/06/21 12:29:33;;;;;;;3.05;1.70;;;25.90;99.90;;;;;;5047957;28;20073;-44
2023/06/21 12:31:59;;;;;;;5.43;1.65;;;26.10;99.90;;;;;;5048947;28;20618;-50
2023/06/21 12:34:25;;;;;;;3.78;1.90;;;26.30;99.90;;;;;;5048419;28;20053;-45
2023/06/21 12:36:52;;;;;;;2.72;1.50;;;26.30;99.90;;;;;;5036888;28;20025;-50
2023/06/21 12:39:18;;;;;;;3.08;1.85;;;26.30;99.90;;;;;;5040777;28;20083;-47
2023/06/21 12:41:44;;;;;;;2.35;1.63;;;26.30;99.90;;;;;;5038826;28;20426;-45
2023/06/21 12:44:31;;;;;;;2.63;1.48;;;26.00;99.90;;;;;;5039048;28;20033;-45
2023/06/21 12:46:56;;;;;;;2.63;1.52;;;26.00;99.90;;;;;;5036987;28;20029;-48
2023/06/21 12:49:22;;;;;;;4.20;2.20;;;26.00;99.90;;;;;;5046592;28;20464;-47